createdAt,value
2023-02-16T00:00:31.138Z,9.30
2023-02-16T00:03:34.560Z,11.00
2023-02-16T00:06:37.687Z,11.48
2023-02-16T00:09:41.056Z,11.23
2023-02-16T00:13:02.289Z,13.68
2023-02-16T00:16:06.248Z,11.65
2023-02-16T00:19:16.948Z,9.52
2023-02-16T00:22:22.192Z,10.80
2023-02-16T00:25:25.017Z,11.07
2023-02-16T00:28:27.961Z,10.80
2023-02-16T00:31:33.168Z,11.07
2023-02-16T00:34:40.186Z,10.55
2023-02-16T00:40:47.234Z,8.60
2023-02-16T00:43:54.931Z,9.85
2023-02-16T00:47:01.854Z,11.55
2023-02-16T00:50:21.659Z,10.82
2023-02-16T00:53:26.828Z,13.38
2023-02-16T00:56:29.840Z,10.95
2023-02-16T00:59:33.084Z,12.27
2023-02-16T01:02:38.921Z,11.12
2023-02-16T01:05:42.054Z,13.35
2023-02-16T01:12:17.063Z,13.62
2023-02-16T01:15:24.665Z,9.65
2023-02-16T01:18:30.800Z,10.60
2023-02-16T01:21:33.830Z,11.60
2023-02-16T01:24:39.743Z,10.23
2023-02-16T01:27:43.850Z,10.45
2023-02-16T01:33:57.654Z,9.40
2023-02-16T01:37:00.568Z,11.65
2023-02-16T01:40:04.010Z,11.02
2023-02-16T01:43:28.939Z,11.95
2023-02-16T01:46:52.251Z,10.27
2023-02-16T01:49:58.316Z,12.30
2023-02-16T01:53:15.576Z,9.68
2023-02-16T01:57:05.207Z,11.15
2023-02-16T02:00:15.526Z,10.23
2023-02-16T02:03:45.294Z,11.05
2023-02-16T02:06:50.886Z,8.20
2023-02-16T02:10:05.919Z,9.55
2023-02-16T02:13:19.956Z,11.65
2023-02-16T02:16:35.466Z,9.63
2023-02-16T02:20:06.872Z,9.65
2023-02-16T02:23:33.956Z,9.57
2023-02-16T02:27:01.118Z,7.32
2023-02-16T02:30:32.027Z,8.30
2023-02-16T02:33:43.575Z,9.20
2023-02-16T02:37:14.808Z,8.32
2023-02-16T02:41:10.139Z,8.90
2023-02-16T02:44:50.493Z,8.88
2023-02-16T02:48:08.427Z,9.98
2023-02-16T02:51:28.637Z,7.53
2023-02-16T02:55:19.754Z,9.20
2023-02-16T02:58:59.774Z,7.50
2023-02-16T03:02:38.227Z,8.68
2023-02-16T03:06:20.158Z,7.90
2023-02-16T03:10:19.131Z,6.65
2023-02-16T03:13:42.871Z,6.30
2023-02-16T03:17:18.318Z,7.62
2023-02-16T03:21:13.930Z,5.47
2023-02-16T03:25:10.038Z,8.10
2023-02-16T03:29:06.364Z,8.52
2023-02-16T03:36:18.638Z,6.65
2023-02-16T03:40:12.897Z,6.55
2023-02-16T03:43:29.954Z,6.35
2023-02-16T03:50:07.640Z,7.25
2023-02-16T03:53:44.829Z,7.70
2023-02-16T03:57:02.076Z,7.05
2023-02-16T04:00:27.825Z,8.40
2023-02-16T04:03:44.971Z,9.07
2023-02-16T04:10:38.882Z,9.30
2023-02-16T04:13:56.884Z,8.18
2023-02-16T04:17:30.980Z,8.52
2023-02-16T04:21:08.546Z,10.85
2023-02-16T04:24:42.899Z,9.52
2023-02-16T04:28:02.343Z,11.35
2023-02-16T04:31:37.071Z,9.07
2023-02-16T04:35:06.912Z,10.73
2023-02-16T04:38:43.140Z,9.47
2023-02-16T04:42:20.094Z,11.00
2023-02-16T04:45:56.012Z,10.02
2023-02-16T04:49:25.817Z,9.85
2023-02-16T04:52:59.750Z,12.00
2023-02-16T04:56:34.545Z,10.10
2023-02-16T05:00:02.270Z,10.43
2023-02-16T05:03:36.737Z,12.20
2023-02-16T05:07:15.661Z,10.57
2023-02-16T05:11:11.198Z,10.43
2023-02-16T05:14:50.043Z,9.07
2023-02-16T05:22:04.283Z,9.05
2023-02-16T05:25:21.829Z,9.15
2023-02-16T05:28:50.942Z,9.52
2023-02-16T05:32:24.980Z,10.95
2023-02-16T05:35:57.121Z,9.20
2023-02-16T05:39:37.082Z,10.95
2023-02-16T05:43:12.456Z,8.50
2023-02-16T05:46:46.738Z,10.80
2023-02-16T05:50:13.695Z,10.27
2023-02-16T05:53:50.313Z,9.95
2023-02-16T05:57:26.304Z,8.45
2023-02-16T06:01:00.785Z,8.48
2023-02-16T06:04:36.175Z,9.55
2023-02-16T06:07:57.078Z,8.40
2023-02-16T06:11:38.908Z,8.88
2023-02-16T06:15:14.379Z,7.87
2023-02-16T06:18:51.775Z,6.93
2023-02-16T06:22:26.198Z,8.10
2023-02-16T06:26:05.870Z,5.70
2023-02-16T06:29:39.798Z,6.57
2023-02-16T06:33:06.814Z,9.13
2023-02-16T06:36:47.242Z,7.37
2023-02-16T06:40:20.474Z,7.40
2023-02-16T06:43:55.885Z,12.02
2023-02-16T06:47:30.387Z,9.30
2023-02-16T06:50:57.707Z,9.10
2023-02-16T06:54:29.581Z,9.70
2023-02-16T06:57:59.827Z,7.72
2023-02-16T07:01:25.852Z,8.23
2023-02-16T07:04:50.067Z,6.28
2023-02-16T07:08:25.302Z,6.95
2023-02-16T07:11:59.798Z,9.50
2023-02-16T07:15:37.050Z,9.20
2023-02-16T07:19:14.693Z,7.12
2023-02-16T07:22:51.684Z,7.68
2023-02-16T07:26:13.944Z,7.03
2023-02-16T07:29:40.793Z,7.60
2023-02-16T07:33:18.188Z,9.10
2023-02-16T07:36:53.687Z,8.18
2023-02-16T07:40:29.371Z,8.68
2023-02-16T07:44:03.784Z,7.65
2023-02-16T07:47:39.156Z,9.50
2023-02-16T07:51:20.175Z,9.60
2023-02-16T07:54:53.966Z,9.32
2023-02-16T07:58:32.074Z,11.43
2023-02-16T08:02:07.512Z,9.90
2023-02-16T08:09:21.076Z,7.82
2023-02-16T08:12:59.540Z,10.10
2023-02-16T08:16:35.738Z,11.10
2023-02-16T08:20:04.928Z,10.07
2023-02-16T08:23:39.072Z,10.77
2023-02-16T08:34:44.045Z,12.63
2023-02-16T08:38:12.969Z,13.65
2023-02-16T08:41:50.668Z,11.93
2023-02-16T08:45:42.493Z,9.90
2023-02-16T08:52:36.079Z,12.77
2023-02-16T08:56:16.848Z,14.65
2023-02-16T09:00:10.608Z,15.77
2023-02-16T09:03:46.302Z,17.52
2023-02-16T09:07:35.199Z,17.15
2023-02-16T09:11:13.698Z,16.58
2023-02-16T09:14:49.317Z,15.38
2023-02-16T09:18:26.696Z,15.32
2023-02-16T09:25:48.522Z,17.35
2023-02-16T09:29:21.566Z,15.40
2023-02-16T09:33:01.312Z,14.27
2023-02-16T09:36:40.617Z,16.42
2023-02-16T09:40:14.883Z,13.77
2023-02-16T09:44:25.823Z,15.60
2023-02-16T09:48:02.048Z,14.45
2023-02-16T09:51:41.208Z,17.70
2023-02-16T09:55:18.527Z,17.98
2023-02-16T09:59:38.235Z,19.50
2023-02-16T10:03:43.217Z,19.17
2023-02-16T10:07:31.774Z,18.92
2023-02-16T10:11:35.654Z,19.08
2023-02-16T10:15:18.214Z,18.15
2023-02-16T10:18:57.337Z,16.08
2023-02-16T10:22:48.411Z,15.48
2023-02-16T10:26:47.564Z,13.85
2023-02-16T10:30:20.050Z,13.50
2023-02-16T10:34:18.242Z,16.73
2023-02-16T10:38:04.895Z,15.00
2023-02-16T10:41:49.851Z,15.50
2023-02-16T10:45:27.708Z,15.90
2023-02-16T10:49:03.212Z,14.68
2023-02-16T10:52:40.811Z,14.95
2023-02-16T10:56:33.881Z,15.35
2023-02-16T11:00:22.500Z,14.00
2023-02-16T11:04:05.337Z,15.48
2023-02-16T11:07:53.869Z,16.77
2023-02-16T11:15:17.062Z,20.62
2023-02-16T11:33:28.888Z,23.85
2023-02-16T11:37:26.948Z,21.67
2023-02-16T11:59:21.021Z,18.48
2023-02-16T12:03:19.129Z,16.00
2023-02-16T12:07:20.456Z,15.10
2023-02-16T12:11:31.257Z,14.50
2023-02-16T12:15:45.474Z,15.52
2023-02-16T12:49:29.608Z,14.65
2023-02-16T13:01:09.093Z,13.25
2023-02-16T13:05:30.414Z,12.70
2023-02-16T13:09:11.571Z,14.85
2023-02-16T13:13:45.779Z,14.95
2023-02-16T13:17:49.899Z,12.37
2023-02-16T13:21:29.048Z,12.25
2023-02-16T13:25:55.452Z,12.37
2023-02-16T13:30:00.701Z,11.10
2023-02-16T13:34:17.124Z,13.38
2023-02-16T13:38:36.990Z,14.75
2023-02-16T13:51:04.869Z,12.68
2023-02-16T13:54:40.028Z,11.52
2023-02-16T14:20:31.888Z,11.25
2023-02-16T14:32:05.347Z,11.88
2023-02-16T14:36:08.169Z,11.85
2023-02-16T14:39:39.243Z,12.30
2023-02-16T14:43:41.942Z,11.75
2023-02-16T14:47:36.442Z,12.45
2023-02-16T14:51:53.687Z,11.85
2023-02-16T14:56:01.574Z,11.60
2023-02-16T15:00:01.846Z,11.55
2023-02-16T16:01:34.040Z,14.02
2023-02-16T16:05:33.251Z,12.27
2023-02-16T16:09:35.673Z,11.07
2023-02-16T16:21:05.044Z,13.45
2023-02-16T16:24:52.167Z,13.07
2023-02-16T16:28:37.945Z,13.77
2023-02-16T16:32:31.819Z,12.85
2023-02-16T16:36:48.936Z,12.63
2023-02-16T16:44:49.797Z,11.00
2023-02-16T16:48:55.299Z,12.18
2023-02-16T17:11:52.105Z,10.98
2023-02-16T18:41:37.226Z,12.10
2023-02-16T18:52:27.877Z,13.60
2023-02-16T18:56:13.841Z,14.95
2023-02-16T18:59:20.895Z,12.82
2023-02-16T19:02:27.535Z,13.35
2023-02-16T19:05:33.906Z,13.80
2023-02-16T19:11:44.276Z,9.00
2023-02-16T19:14:50.135Z,14.10
2023-02-16T19:18:15.625Z,13.07
2023-02-16T19:21:26.277Z,12.37
2023-02-16T19:25:12.554Z,11.45
2023-02-16T19:28:37.360Z,11.40
2023-02-16T19:31:42.973Z,11.68
2023-02-16T19:34:49.222Z,10.65
2023-02-16T19:37:53.701Z,12.45
2023-02-16T19:40:59.548Z,12.65
2023-02-16T19:44:08.052Z,11.23
2023-02-16T19:47:12.030Z,12.93
2023-02-16T19:50:19.086Z,12.25
2023-02-16T19:53:24.308Z,12.45
2023-02-16T19:56:30.341Z,12.95
2023-02-16T20:02:42.237Z,10.15
2023-02-16T20:05:45.806Z,13.52
2023-02-16T20:08:52.915Z,10.98
2023-02-16T20:11:56.596Z,10.70
2023-02-16T20:15:01.236Z,12.55
2023-02-16T20:18:12.747Z,12.52
2023-02-16T20:21:26.040Z,12.73
2023-02-16T20:24:35.661Z,14.63
2023-02-16T20:27:44.544Z,13.17
2023-02-16T20:30:55.325Z,13.18
2023-02-16T20:34:21.548Z,11.90
2023-02-16T20:37:55.032Z,12.65
2023-02-16T20:41:00.857Z,12.13
2023-02-16T20:44:05.351Z,12.65
2023-02-16T20:47:11.807Z,12.90
2023-02-16T20:50:16.076Z,12.48
2023-02-16T20:53:22.742Z,12.77
2023-02-16T20:56:28.196Z,12.27
2023-02-16T21:00:16.534Z,12.57
2023-02-16T21:03:41.310Z,12.60
2023-02-16T21:06:44.341Z,12.85
2023-02-16T21:09:50.312Z,12.10
2023-02-16T21:12:54.132Z,10.90
2023-02-16T21:15:58.620Z,12.88
2023-02-16T21:19:09.290Z,9.75
2023-02-16T21:25:46.328Z,8.43
2023-02-16T21:28:51.047Z,9.50
2023-02-16T21:32:15.224Z,8.70
2023-02-16T21:35:18.821Z,10.88
2023-02-16T21:38:25.846Z,9.63
2023-02-16T21:44:43.172Z,7.62
2023-02-16T21:48:06.227Z,7.82
2023-02-16T21:51:09.817Z,9.63
2023-02-16T21:54:49.994Z,8.50
2023-02-16T21:58:00.113Z,8.95
2023-02-16T22:01:03.219Z,10.15
2023-02-16T22:04:06.446Z,8.77
2023-02-16T22:07:31.563Z,10.45
2023-02-16T22:10:37.869Z,11.03
2023-02-16T22:13:40.885Z,11.10
2023-02-16T22:16:48.464Z,13.23
2023-02-16T22:19:54.680Z,14.73
2023-02-16T22:22:59.621Z,14.77
2023-02-16T22:26:03.115Z,13.13
2023-02-16T22:29:08.368Z,13.20
2023-02-16T22:32:14.363Z,13.40
2023-02-16T22:35:18.010Z,12.25
2023-02-16T22:38:20.983Z,11.38
2023-02-16T22:41:26.815Z,12.50
2023-02-16T22:44:33.879Z,13.35
2023-02-16T22:47:39.081Z,11.40
2023-02-16T22:50:45.229Z,11.48
2023-02-16T22:53:51.511Z,11.57
2023-02-16T22:56:54.368Z,11.95
2023-02-16T22:59:57.595Z,13.10
2023-02-16T23:03:00.212Z,11.25
2023-02-16T23:06:22.697Z,13.38
2023-02-16T23:09:27.818Z,10.98
2023-02-16T23:12:31.469Z,12.83
2023-02-16T23:15:41.425Z,9.65
2023-02-16T23:18:45.721Z,10.82
2023-02-16T23:21:58.196Z,9.82
2023-02-16T23:25:23.222Z,12.18
2023-02-16T23:28:31.450Z,10.35
2023-02-16T23:31:36.682Z,9.90
2023-02-16T23:34:41.082Z,9.68
2023-02-16T23:37:49.771Z,10.15
2023-02-16T23:41:04.066Z,9.48
2023-02-16T23:44:08.511Z,9.43
2023-02-16T23:47:13.112Z,8.57
2023-02-16T23:50:16.595Z,10.45
2023-02-16T23:53:19.881Z,11.00
2023-02-16T23:56:46.929Z,11.12
2023-02-16T23:59:54.619Z,9.48
